sensor_id;sensor_type;location;lat;lon;timestamp;P1;durP1;ratioP1;P2;durP2;ratioP2
14330;SDS011;7249;49.376;11.080;2024-03-08T00:02:15;11.60;;;6.53;;
14330;SDS011;7249;49.376;11.080;2024-03-08T00:04:41;12.13;;;6.27;;
14330;SDS011;7249;49.376;11.080;2024-03-08T00:07:07;9.20;;;5.20;;
14330;SDS011;7249;49.376;11.080;2024-03-08T00:09:33;13.43;;;6.70;;
14330;SDS011;7249;49.376;11.080;2024-03-08T00:11:58;14.80;;;6.53;;
14330;SDS011;7249;49.376;11.080;2024-03-08T00:14:24;10.20;;;5.63;;
14330;SDS011;7249;49.376;11.080;2024-03-08T00:16:50;9.67;;;5.40;;
14330;SDS011;7249;49.376;11.080;2024-03-08T00:19:19;10.77;;;6.30;;
14330;SDS011;7249;49.376;11.080;2024-03-08T00:21:44;11.70;;;7.23;;
14330;SDS011;7249;49.376;11.080;2024-03-08T00:24:10;11.37;;;5.97;;
14330;SDS011;7249;49.376;11.080;2024-03-08T00:26:37;8.43;;;4.83;;
14330;SDS011;7249;49.376;11.080;2024-03-08T00:29:02;13.13;;;5.47;;
14330;SDS011;7249;49.376;11.080;2024-03-08T00:31:28;12.63;;;6.20;;
14330;SDS011;7249;49.376;11.080;2024-03-08T00:33:56;15.73;;;5.90;;
14330;SDS011;7249;49.376;11.080;2024-03-08T00:36:22;8.17;;;5.60;;
14330;SDS011;7249;49.376;11.080;2024-03-08T00:38:48;14.10;;;6.70;;
14330;SDS011;7249;49.376;11.080;2024-03-08T00:41:13;11.57;;;6.00;;
14330;SDS011;7249;49.376;11.080;2024-03-08T00:43:39;15.60;;;6.37;;
14330;SDS011;7249;49.376;11.080;2024-03-08T00:46:05;10.33;;;6.13;;
14330;SDS011;7249;49.376;11.080;2024-03-08T00:48:30;8.47;;;5.00;;
14330;SDS011;7249;49.376;11.080;2024-03-08T00:50:56;11.97;;;6.10;;
14330;SDS011;7249;49.376;11.080;2024-03-08T00:53:22;10.23;;;6.30;;
14330;SDS011;7249;49.376;11.080;2024-03-08T00:55:48;12.20;;;6.20;;
14330;SDS011;7249;49.376;11.080;2024-03-08T00:58:14;9.90;;;5.50;;
14330;SDS011;7249;49.376;11.080;2024-03-08T01:00:40;7.70;;;5.07;;
14330;SDS011;7249;49.376;11.080;2024-03-08T01:03:06;9.33;;;6.47;;
14330;SDS011;7249;49.376;11.080;2024-03-08T01:05:32;12.07;;;5.57;;
14330;SDS011;7249;49.376;11.080;2024-03-08T01:07:58;11.93;;;5.97;;
14330;SDS011;7249;49.376;11.080;2024-03-08T01:10:24;10.50;;;5.73;;
14330;SDS011;7249;49.376;11.080;2024-03-08T01:12:49;14.73;;;7.70;;
14330;SDS011;7249;49.376;11.080;2024-03-08T01:15:15;10.27;;;6.60;;
14330;SDS011;7249;49.376;11.080;2024-03-08T01:17:41;11.17;;;6.03;;
14330;SDS011;7249;49.376;11.080;2024-03-08T01:20:09;11.07;;;6.53;;
14330;SDS011;7249;49.376;11.080;2024-03-08T01:22:37;9.57;;;5.77;;
14330;SDS011;7249;49.376;11.080;2024-03-08T01:25:04;7.83;;;5.07;;
14330;SDS011;7249;49.376;11.080;2024-03-08T01:27:30;12.63;;;6.67;;
14330;SDS011;7249;49.376;11.080;2024-03-08T01:29:56;10.80;;;5.90;;
14330;SDS011;7249;49.376;11.080;2024-03-08T01:32:24;10.27;;;6.17;;
14330;SDS011;7249;49.376;11.080;2024-03-08T01:34:50;11.10;;;6.53;;
14330;SDS011;7249;49.376;11.080;2024-03-08T01:37:15;12.60;;;6.53;;
14330;SDS011;7249;49.376;11.080;2024-03-08T01:39:41;9.67;;;5.37;;
14330;SDS011;7249;49.376;11.080;2024-03-08T01:42:07;13.87;;;6.33;;
14330;SDS011;7249;49.376;11.080;2024-03-08T01:44:33;11.07;;;5.60;;
14330;SDS011;7249;49.376;11.080;2024-03-08T01:46:59;12.63;;;7.30;;
14330;SDS011;7249;49.376;11.080;2024-03-08T01:49:25;13.57;;;7.40;;
14330;SDS011;7249;49.376;11.080;2024-03-08T01:51:53;10.93;;;6.83;;
14330;SDS011;7249;49.376;11.080;2024-03-08T01:54:21;11.80;;;6.27;;
14330;SDS011;7249;49.376;11.080;2024-03-08T01:56:48;11.77;;;6.17;;
14330;SDS011;7249;49.376;11.080;2024-03-08T01:59:14;9.30;;;6.10;;
14330;SDS011;7249;49.376;11.080;2024-03-08T02:01:41;10.50;;;6.20;;
14330;SDS011;7249;49.376;11.080;2024-03-08T02:04:07;15.90;;;7.70;;
14330;SDS011;7249;49.376;11.080;2024-03-08T02:06:33;12.00;;;6.33;;
14330;SDS011;7249;49.376;11.080;2024-03-08T02:08:58;14.00;;;6.60;;
14330;SDS011;7249;49.376;11.080;2024-03-08T02:11:25;9.37;;;6.23;;
14330;SDS011;7249;49.376;11.080;2024-03-08T02:13:51;11.07;;;6.23;;
14330;SDS011;7249;49.376;11.080;2024-03-08T02:16:20;11.73;;;6.13;;
14330;SDS011;7249;49.376;11.080;2024-03-08T02:18:47;11.03;;;6.60;;
14330;SDS011;7249;49.376;11.080;2024-03-08T02:21:13;13.30;;;7.13;;
14330;SDS011;7249;49.376;11.080;2024-03-08T02:23:43;8.87;;;5.70;;
14330;SDS011;7249;49.376;11.080;2024-03-08T02:26:09;8.77;;;6.43;;
14330;SDS011;7249;49.376;11.080;2024-03-08T02:28:35;15.17;;;6.93;;
14330;SDS011;7249;49.376;11.080;2024-03-08T02:31:01;9.50;;;5.80;;
14330;SDS011;7249;49.376;11.080;2024-03-08T02:33:27;9.27;;;6.40;;
14330;SDS011;7249;49.376;11.080;2024-03-08T02:35:53;9.80;;;5.47;;
14330;SDS011;7249;49.376;11.080;2024-03-08T02:38:21;11.23;;;6.60;;
14330;SDS011;7249;49.376;11.080;2024-03-08T02:40:49;8.67;;;5.50;;
14330;SDS011;7249;49.376;11.080;2024-03-08T02:43:17;10.87;;;5.33;;
14330;SDS011;7249;49.376;11.080;2024-03-08T02:45:43;12.37;;;5.67;;
14330;SDS011;7249;49.376;11.080;2024-03-08T02:48:13;11.07;;;5.70;;
14330;SDS011;7249;49.376;11.080;2024-03-08T02:50:40;10.40;;;5.00;;
14330;SDS011;7249;49.376;11.080;2024-03-08T02:53:07;9.47;;;5.37;;
14330;SDS011;7249;49.376;11.080;2024-03-08T02:55:33;11.73;;;5.17;;
14330;SDS011;7249;49.376;11.080;2024-03-08T02:58:01;12.63;;;5.70;;
14330;SDS011;7249;49.376;11.080;2024-03-08T03:00:28;11.13;;;6.37;;
14330;SDS011;7249;49.376;11.080;2024-03-08T03:02:55;10.20;;;5.40;;
14330;SDS011;7249;49.376;11.080;2024-03-08T03:05:25;13.07;;;6.80;;
14330;SDS011;7249;49.376;11.080;2024-03-08T03:07:51;9.90;;;5.90;;
14330;SDS011;7249;49.376;11.080;2024-03-08T03:10:17;7.17;;;5.40;;
14330;SDS011;7249;49.376;11.080;2024-03-08T03:12:43;13.93;;;6.70;;
14330;SDS011;7249;49.376;11.080;2024-03-08T03:15:12;9.73;;;5.97;;
14330;SDS011;7249;49.376;11.080;2024-03-08T03:17:41;12.63;;;5.73;;
14330;SDS011;7249;49.376;11.080;2024-03-08T03:20:15;10.57;;;5.93;;
14330;SDS011;7249;49.376;11.080;2024-03-08T03:22:48;8.70;;;5.20;;
14330;SDS011;7249;49.376;11.080;2024-03-08T03:25:17;12.30;;;6.83;;
14330;SDS011;7249;49.376;11.080;2024-03-08T03:27:48;9.53;;;5.97;;
14330;SDS011;7249;49.376;11.080;2024-03-08T03:30:14;8.57;;;5.47;;
14330;SDS011;7249;49.376;11.080;2024-03-08T03:32:47;14.23;;;6.20;;
14330;SDS011;7249;49.376;11.080;2024-03-08T03:35:19;10.90;;;6.97;;
14330;SDS011;7249;49.376;11.080;2024-03-08T03:37:48;14.73;;;7.07;;
14330;SDS011;7249;49.376;11.080;2024-03-08T03:40:27;9.53;;;5.77;;
14330;SDS011;7249;49.376;11.080;2024-03-08T03:42:54;8.83;;;5.27;;
14330;SDS011;7249;49.376;11.080;2024-03-08T03:45:20;10.70;;;6.37;;
14330;SDS011;7249;49.376;11.080;2024-03-08T03:47:45;10.57;;;5.90;;
14330;SDS011;7249;49.376;11.080;2024-03-08T03:50:11;13.27;;;5.63;;
14330;SDS011;7249;49.376;11.080;2024-03-08T03:52:37;8.77;;;5.23;;
14330;SDS011;7249;49.376;11.080;2024-03-08T03:55:03;11.80;;;6.23;;
14330;SDS011;7249;49.376;11.080;2024-03-08T03:57:30;11.00;;;6.13;;
14330;SDS011;7249;49.376;11.080;2024-03-08T03:59:56;9.07;;;4.93;;
14330;SDS011;7249;49.376;11.080;2024-03-08T04:02:23;10.47;;;5.07;;
14330;SDS011;7249;49.376;11.080;2024-03-08T04:04:51;12.03;;;6.60;;
14330;SDS011;7249;49.376;11.080;2024-03-08T04:07:20;14.63;;;7.33;;
14330;SDS011;7249;49.376;11.080;2024-03-08T04:09:46;11.73;;;6.63;;
14330;SDS011;7249;49.376;11.080;2024-03-08T04:12:12;9.27;;;6.57;;
14330;SDS011;7249;49.376;11.080;2024-03-08T04:14:41;12.93;;;6.67;;
14330;SDS011;7249;49.376;11.080;2024-03-08T04:17:07;12.03;;;7.13;;
14330;SDS011;7249;49.376;11.080;2024-03-08T04:19:37;10.50;;;6.00;;
14330;SDS011;7249;49.376;11.080;2024-03-08T04:22:03;12.00;;;6.37;;
14330;SDS011;7249;49.376;11.080;2024-03-08T04:24:28;13.37;;;6.77;;
14330;SDS011;7249;49.376;11.080;2024-03-08T04:26:56;13.80;;;7.97;;
14330;SDS011;7249;49.376;11.080;2024-03-08T04:29:22;13.63;;;6.53;;
14330;SDS011;7249;49.376;11.080;2024-03-08T04:31:48;11.93;;;6.97;;
14330;SDS011;7249;49.376;11.080;2024-03-08T04:34:14;14.70;;;7.50;;
14330;SDS011;7249;49.376;11.080;2024-03-08T04:36:39;10.67;;;6.90;;
14330;SDS011;7249;49.376;11.080;2024-03-08T04:39:05;12.87;;;7.30;;
14330;SDS011;7249;49.376;11.080;2024-03-08T04:41:31;12.80;;;7.30;;
14330;SDS011;7249;49.376;11.080;2024-03-08T04:43:59;13.70;;;7.17;;
14330;SDS011;7249;49.376;11.080;2024-03-08T04:46:25;15.40;;;8.53;;
14330;SDS011;7249;49.376;11.080;2024-03-08T04:48:50;11.83;;;6.40;;
14330;SDS011;7249;49.376;11.080;2024-03-08T04:51:16;9.33;;;6.63;;
14330;SDS011;7249;49.376;11.080;2024-03-08T04:53:41;15.70;;;7.73;;
14330;SDS011;7249;49.376;11.080;2024-03-08T04:56:07;12.57;;;6.60;;
14330;SDS011;7249;49.376;11.080;2024-03-08T04:58:35;16.63;;;8.07;;
14330;SDS011;7249;49.376;11.080;2024-03-08T05:01:01;14.73;;;7.17;;
14330;SDS011;7249;49.376;11.080;2024-03-08T05:03:27;11.47;;;6.67;;
14330;SDS011;7249;49.376;11.080;2024-03-08T05:05:52;10.53;;;5.70;;
14330;SDS011;7249;49.376;11.080;2024-03-08T05:08:18;15.37;;;7.73;;
14330;SDS011;7249;49.376;11.080;2024-03-08T05:10:44;17.87;;;7.17;;
14330;SDS011;7249;49.376;11.080;2024-03-08T05:13:11;9.27;;;6.20;;
14330;SDS011;7249;49.376;11.080;2024-03-08T05:15:38;15.13;;;7.73;;
14330;SDS011;7249;49.376;11.080;2024-03-08T05:18:04;15.30;;;7.67;;
14330;SDS011;7249;49.376;11.080;2024-03-08T05:20:30;14.60;;;7.60;;
14330;SDS011;7249;49.376;11.080;2024-03-08T05:22:56;13.30;;;7.37;;
14330;SDS011;7249;49.376;11.080;2024-03-08T05:25:25;17.93;;;7.60;;
14330;SDS011;7249;49.376;11.080;2024-03-08T05:27:51;14.83;;;7.50;;
14330;SDS011;7249;49.376;11.080;2024-03-08T05:30:17;14.63;;;8.07;;
14330;SDS011;7249;49.376;11.080;2024-03-08T05:32:43;15.73;;;7.90;;
14330;SDS011;7249;49.376;11.080;2024-03-08T05:35:12;12.33;;;8.00;;
14330;SDS011;7249;49.376;11.080;2024-03-08T05:37:38;13.33;;;7.53;;
14330;SDS011;7249;49.376;11.080;2024-03-08T05:40:07;13.97;;;8.23;;
14330;SDS011;7249;49.376;11.080;2024-03-08T05:42:36;14.10;;;7.47;;
14330;SDS011;7249;49.376;11.080;2024-03-08T05:45:03;15.77;;;7.87;;
14330;SDS011;7249;49.376;11.080;2024-03-08T05:47:29;14.73;;;8.20;;
14330;SDS011;7249;49.376;11.080;2024-03-08T05:49:55;11.27;;;7.00;;
14330;SDS011;7249;49.376;11.080;2024-03-08T05:52:20;14.30;;;7.53;;
14330;SDS011;7249;49.376;11.080;2024-03-08T05:54:46;11.90;;;7.67;;
14330;SDS011;7249;49.376;11.080;2024-03-08T05:57:12;12.20;;;8.00;;
14330;SDS011;7249;49.376;11.080;2024-03-08T05:59:39;12.63;;;7.40;;
14330;SDS011;7249;49.376;11.080;2024-03-08T06:02:05;12.93;;;7.67;;
14330;SDS011;7249;49.376;11.080;2024-03-08T06:04:30;21.93;;;8.50;;
14330;SDS011;7249;49.376;11.080;2024-03-08T06:06:56;10.70;;;7.03;;
14330;SDS011;7249;49.376;11.080;2024-03-08T06:09:23;14.33;;;8.47;;
14330;SDS011;7249;49.376;11.080;2024-03-08T06:11:49;12.47;;;7.40;;
14330;SDS011;7249;49.376;11.080;2024-03-08T06:14:16;16.00;;;8.97;;
14330;SDS011;7249;49.376;11.080;2024-03-08T06:16:46;14.00;;;7.67;;
14330;SDS011;7249;49.376;11.080;2024-03-08T06:19:12;18.83;;;8.10;;
14330;SDS011;7249;49.376;11.080;2024-03-08T06:21:38;15.90;;;8.27;;
14330;SDS011;7249;49.376;11.080;2024-03-08T06:24:04;17.10;;;8.60;;
14330;SDS011;7249;49.376;11.080;2024-03-08T06:26:30;15.53;;;9.13;;
14330;SDS011;7249;49.376;11.080;2024-03-08T06:28:56;15.10;;;8.57;;
14330;SDS011;7249;49.376;11.080;2024-03-08T06:31:22;21.07;;;10.00;;
14330;SDS011;7249;49.376;11.080;2024-03-08T06:33:48;16.80;;;8.10;;
14330;SDS011;7249;49.376;11.080;2024-03-08T06:36:17;18.17;;;9.50;;
14330;SDS011;7249;49.376;11.080;2024-03-08T06:38:45;17.67;;;8.40;;
14330;SDS011;7249;49.376;11.080;2024-03-08T06:41:11;16.33;;;9.53;;
14330;SDS011;7249;49.376;11.080;2024-03-08T06:43:43;17.83;;;8.77;;
14330;SDS011;7249;49.376;11.080;2024-03-08T06:46:10;16.33;;;9.63;;
14330;SDS011;7249;49.376;11.080;2024-03-08T06:48:38;22.50;;;11.17;;
14330;SDS011;7249;49.376;11.080;2024-03-08T06:51:06;18.53;;;10.00;;
14330;SDS011;7249;49.376;11.080;2024-03-08T06:53:32;15.93;;;9.37;;
14330;SDS011;7249;49.376;11.080;2024-03-08T06:56:00;16.87;;;9.10;;
14330;SDS011;7249;49.376;11.080;2024-03-08T06:58:26;13.97;;;7.43;;
14330;SDS011;7249;49.376;11.080;2024-03-08T07:00:52;16.80;;;8.07;;
14330;SDS011;7249;49.376;11.080;2024-03-08T07:03:18;15.60;;;8.00;;
14330;SDS011;7249;49.376;11.080;2024-03-08T07:05:44;17.73;;;8.13;;
14330;SDS011;7249;49.376;11.080;2024-03-08T07:08:10;14.93;;;8.07;;
14330;SDS011;7249;49.376;11.080;2024-03-08T07:10:39;16.87;;;7.50;;
14330;SDS011;7249;49.376;11.080;2024-03-08T07:13:07;15.20;;;7.53;;
14330;SDS011;7249;49.376;11.080;2024-03-08T07:15:32;16.33;;;8.00;;
14330;SDS011;7249;49.376;11.080;2024-03-08T07:17:58;14.80;;;7.13;;
14330;SDS011;7249;49.376;11.080;2024-03-08T07:20:25;13.83;;;7.20;;
14330;SDS011;7249;49.376;11.080;2024-03-08T07:22:50;17.17;;;8.10;;
14330;SDS011;7249;49.376;11.080;2024-03-08T07:25:17;15.00;;;7.47;;
14330;SDS011;7249;49.376;11.080;2024-03-08T07:27:52;14.10;;;7.27;;
14330;SDS011;7249;49.376;11.080;2024-03-08T07:30:22;15.27;;;7.20;;
14330;SDS011;7249;49.376;11.080;2024-03-08T07:33:08;14.13;;;7.10;;
14330;SDS011;7249;49.376;11.080;2024-03-08T07:35:37;14.50;;;7.60;;
14330;SDS011;7249;49.376;11.080;2024-03-08T07:38:04;14.73;;;7.47;;
14330;SDS011;7249;49.376;11.080;2024-03-08T07:40:30;12.10;;;6.57;;
14330;SDS011;7249;49.376;11.080;2024-03-08T07:43:06;11.53;;;6.27;;
14330;SDS011;7249;49.376;11.080;2024-03-08T07:45:32;11.83;;;6.77;;
14330;SDS011;7249;49.376;11.080;2024-03-08T07:47:58;13.07;;;7.90;;
14330;SDS011;7249;49.376;11.080;2024-03-08T07:50:24;18.07;;;7.67;;
14330;SDS011;7249;49.376;11.080;2024-03-08T07:52:50;16.13;;;7.83;;
14330;SDS011;7249;49.376;11.080;2024-03-08T07:55:16;12.53;;;6.53;;
14330;SDS011;7249;49.376;11.080;2024-03-08T07:57:41;11.00;;;7.00;;
14330;SDS011;7249;49.376;11.080;2024-03-08T08:00:07;14.50;;;6.67;;
14330;SDS011;7249;49.376;11.080;2024-03-08T08:02:34;10.80;;;6.47;;
14330;SDS011;7249;49.376;11.080;2024-03-08T08:05:00;11.30;;;6.90;;
14330;SDS011;7249;49.376;11.080;2024-03-08T08:07:27;12.80;;;6.87;;
14330;SDS011;7249;49.376;11.080;2024-03-08T08:09:53;13.00;;;6.67;;
14330;SDS011;7249;49.376;11.080;2024-03-08T08:12:19;14.70;;;6.97;;
14330;SDS011;7249;49.376;11.080;2024-03-08T08:14:44;9.23;;;6.30;;
14330;SDS011;7249;49.376;11.080;2024-03-08T08:17:10;12.03;;;6.07;;
14330;SDS011;7249;49.376;11.080;2024-03-08T08:19:37;13.60;;;6.70;;
14330;SDS011;7249;49.376;11.080;2024-03-08T08:22:03;11.53;;;6.83;;
14330;SDS011;7249;49.376;11.080;2024-03-08T08:24:29;11.17;;;6.10;;
14330;SDS011;7249;49.376;11.080;2024-03-08T08:26:55;10.93;;;6.80;;
14330;SDS011;7249;49.376;11.080;2024-03-08T08:29:21;11.93;;;6.37;;
14330;SDS011;7249;49.376;11.080;2024-03-08T08:31:47;10.70;;;6.03;;
14330;SDS011;7249;49.376;11.080;2024-03-08T08:34:15;12.67;;;7.00;;
14330;SDS011;7249;49.376;11.080;2024-03-08T08:36:44;12.00;;;6.60;;
14330;SDS011;7249;49.376;11.080;2024-03-08T08:39:10;9.63;;;6.27;;
14330;SDS011;7249;49.376;11.080;2024-03-08T08:41:38;11.60;;;6.77;;
14330;SDS011;7249;49.376;11.080;2024-03-08T08:44:06;11.83;;;6.60;;
14330;SDS011;7249;49.376;11.080;2024-03-08T08:46:35;12.15;;;6.55;;
14330;SDS011;7249;49.376;11.080;2024-03-08T08:49:02;11.13;;;6.10;;
14330;SDS011;7249;49.376;11.080;2024-03-08T08:51:29;9.87;;;5.93;;
14330;SDS011;7249;49.376;11.080;2024-03-08T08:53:55;9.80;;;6.15;;
14330;SDS011;7249;49.376;11.080;2024-03-08T08:56:21;10.52;;;6.20;;
14330;SDS011;7249;49.376;11.080;2024-03-08T08:58:47;11.27;;;6.43;;
14330;SDS011;7249;49.376;11.080;2024-03-08T09:01:14;10.13;;;5.82;;
14330;SDS011;7249;49.376;11.080;2024-03-08T09:03:40;10.55;;;6.18;;
14330;SDS011;7249;49.376;11.080;2024-03-08T09:06:08;10.70;;;5.38;;
14330;SDS011;7249;49.376;11.080;2024-03-08T09:08:38;9.63;;;5.97;;
14330;SDS011;7249;49.376;11.080;2024-03-08T09:11:04;10.30;;;5.90;;
14330;SDS011;7249;49.376;11.080;2024-03-08T09:13:30;11.30;;;5.87;;
14330;SDS011;7249;49.376;11.080;2024-03-08T09:15:56;11.55;;;5.93;;
14330;SDS011;7249;49.376;11.080;2024-03-08T09:18:22;10.83;;;6.00;;
14330;SDS011;7249;49.376;11.080;2024-03-08T09:20:49;11.47;;;5.40;;
14330;SDS011;7249;49.376;11.080;2024-03-08T09:23:15;13.00;;;6.27;;
14330;SDS011;7249;49.376;11.080;2024-03-08T09:25:42;9.40;;;5.83;;
14330;SDS011;7249;49.376;11.080;2024-03-08T09:28:08;9.40;;;5.50;;
14330;SDS011;7249;49.376;11.080;2024-03-08T09:30:37;11.40;;;5.60;;
14330;SDS011;7249;49.376;11.080;2024-03-08T09:33:03;11.70;;;6.07;;
14330;SDS011;7249;49.376;11.080;2024-03-08T09:35:30;10.63;;;5.80;;
14330;SDS011;7249;49.376;11.080;2024-03-08T09:37:55;8.67;;;5.20;;
14330;SDS011;7249;49.376;11.080;2024-03-08T09:40:21;11.47;;;6.07;;
14330;SDS011;7249;49.376;11.080;2024-03-08T09:42:49;9.10;;;5.73;;
14330;SDS011;7249;49.376;11.080;2024-03-08T09:45:15;9.03;;;5.63;;
14330;SDS011;7249;49.376;11.080;2024-03-08T09:47:43;11.50;;;5.53;;
14330;SDS011;7249;49.376;11.080;2024-03-08T09:50:10;9.25;;;6.10;;
14330;SDS011;7249;49.376;11.080;2024-03-08T09:52:46;9.18;;;5.75;;
14330;SDS011;7249;49.376;11.080;2024-03-08T09:55:13;11.20;;;6.50;;
14330;SDS011;7249;49.376;11.080;2024-03-08T09:57:42;11.52;;;5.82;;
14330;SDS011;7249;49.376;11.080;2024-03-08T10:00:28;9.60;;;5.47;;
14330;SDS011;7249;49.376;11.080;2024-03-08T10:02:54;9.10;;;5.32;;
14330;SDS011;7249;49.376;11.080;2024-03-08T10:05:26;8.93;;;5.38;;
14330;SDS011;7249;49.376;11.080;2024-03-08T10:07:51;8.98;;;5.25;;
14330;SDS011;7249;49.376;11.080;2024-03-08T10:10:18;8.88;;;5.70;;
14330;SDS011;7249;49.376;11.080;2024-03-08T10:12:43;7.85;;;4.68;;
14330;SDS011;7249;49.376;11.080;2024-03-08T10:15:10;9.80;;;4.75;;
14330;SDS011;7249;49.376;11.080;2024-03-08T10:17:37;9.45;;;5.40;;
14330;SDS011;7249;49.376;11.080;2024-03-08T10:20:13;8.75;;;5.25;;
14330;SDS011;7249;49.376;11.080;2024-03-08T10:22:40;10.23;;;5.15;;
14330;SDS011;7249;49.376;11.080;2024-03-08T10:25:09;8.73;;;5.53;;
14330;SDS011;7249;49.376;11.080;2024-03-08T10:27:36;8.63;;;4.88;;
14330;SDS011;7249;49.376;11.080;2024-03-08T10:30:04;6.85;;;4.60;;
14330;SDS011;7249;49.376;11.080;2024-03-08T10:32:31;7.45;;;4.00;;
14330;SDS011;7249;49.376;11.080;2024-03-08T10:34:56;7.95;;;4.75;;
14330;SDS011;7249;49.376;11.080;2024-03-08T10:37:22;8.30;;;4.78;;
14330;SDS011;7249;49.376;11.080;2024-03-08T10:40:22;7.82;;;5.30;;
14330;SDS011;7249;49.376;11.080;2024-03-08T10:42:56;9.15;;;4.95;;
14330;SDS011;7249;49.376;11.080;2024-03-08T10:47:50;7.78;;;4.75;;
14330;SDS011;7249;49.376;11.080;2024-03-08T10:50:25;8.77;;;5.00;;
14330;SDS011;7249;49.376;11.080;2024-03-08T10:52:52;7.70;;;4.57;;
14330;SDS011;7249;49.376;11.080;2024-03-08T10:55:18;7.15;;;4.25;;
14330;SDS011;7249;49.376;11.080;2024-03-08T10:57:45;5.97;;;4.32;;
14330;SDS011;7249;49.376;11.080;2024-03-08T11:00:16;6.55;;;4.38;;
14330;SDS011;7249;49.376;11.080;2024-03-08T11:02:44;8.23;;;4.63;;
14330;SDS011;7249;49.376;11.080;2024-03-08T11:05:10;5.32;;;3.85;;
14330;SDS011;7249;49.376;11.080;2024-03-08T11:07:44;6.13;;;4.18;;
14330;SDS011;7249;49.376;11.080;2024-03-08T11:10:19;4.82;;;3.40;;
14330;SDS011;7249;49.376;11.080;2024-03-08T11:12:45;4.63;;;3.47;;
14330;SDS011;7249;49.376;11.080;2024-03-08T11:15:13;6.20;;;4.00;;
14330;SDS011;7249;49.376;11.080;2024-03-08T11:20:12;4.32;;;3.45;;
14330;SDS011;7249;49.376;11.080;2024-03-08T11:22:49;5.47;;;3.30;;
14330;SDS011;7249;49.376;11.080;2024-03-08T11:30:45;3.83;;;2.60;;
14330;SDS011;7249;49.376;11.080;2024-03-08T11:33:34;3.95;;;2.50;;
14330;SDS011;7249;49.376;11.080;2024-03-08T11:38:43;4.18;;;2.53;;
14330;SDS011;7249;49.376;11.080;2024-03-08T11:41:09;4.68;;;2.80;;
14330;SDS011;7249;49.376;11.080;2024-03-08T11:43:39;4.38;;;2.40;;
14330;SDS011;7249;49.376;11.080;2024-03-08T11:46:13;4.07;;;2.53;;
14330;SDS011;7249;49.376;11.080;2024-03-08T11:48:43;3.78;;;2.50;;
14330;SDS011;7249;49.376;11.080;2024-03-08T11:51:13;4.88;;;2.70;;
14330;SDS011;7249;49.376;11.080;2024-03-08T11:53:40;3.10;;;2.55;;
14330;SDS011;7249;49.376;11.080;2024-03-08T11:56:12;4.70;;;3.03;;
14330;SDS011;7249;49.376;11.080;2024-03-08T11:58:39;2.40;;;2.20;;
14330;SDS011;7249;49.376;11.080;2024-03-08T12:01:06;3.83;;;2.88;;
14330;SDS011;7249;49.376;11.080;2024-03-08T12:03:42;2.88;;;2.15;;
14330;SDS011;7249;49.376;11.080;2024-03-08T12:06:11;3.55;;;2.53;;
14330;SDS011;7249;49.376;11.080;2024-03-08T12:08:38;3.85;;;2.28;;
14330;SDS011;7249;49.376;11.080;2024-03-08T12:11:04;3.67;;;2.88;;
14330;SDS011;7249;49.376;11.080;2024-03-08T12:13:31;5.88;;;3.92;;
14330;SDS011;7249;49.376;11.080;2024-03-08T12:15:59;4.53;;;3.30;;
14330;SDS011;7249;49.376;11.080;2024-03-08T12:18:25;5.13;;;3.55;;
14330;SDS011;7249;49.376;11.080;2024-03-08T12:21:08;5.78;;;3.72;;
14330;SDS011;7249;49.376;11.080;2024-03-08T12:23:36;4.32;;;3.42;;
14330;SDS011;7249;49.376;11.080;2024-03-08T12:26:12;4.97;;;3.67;;
14330;SDS011;7249;49.376;11.080;2024-03-08T12:28:43;8.32;;;3.90;;
14330;SDS011;7249;49.376;11.080;2024-03-08T12:31:13;4.18;;;3.50;;
14330;SDS011;7249;49.376;11.080;2024-03-08T12:33:54;4.80;;;3.78;;
14330;SDS011;7249;49.376;11.080;2024-03-08T12:36:24;4.40;;;3.38;;
14330;SDS011;7249;49.376;11.080;2024-03-08T12:38:50;5.20;;;3.75;;
14330;SDS011;7249;49.376;11.080;2024-03-08T12:41:19;5.47;;;3.40;;
14330;SDS011;7249;49.376;11.080;2024-03-08T12:43:46;5.22;;;3.65;;
14330;SDS011;7249;49.376;11.080;2024-03-08T12:46:18;5.28;;;3.45;;
14330;SDS011;7249;49.376;11.080;2024-03-08T12:48:51;5.78;;;3.40;;
14330;SDS011;7249;49.376;11.080;2024-03-08T12:51:18;5.32;;;3.45;;
14330;SDS011;7249;49.376;11.080;2024-03-08T12:53:46;4.57;;;3.05;;
14330;SDS011;7249;49.376;11.080;2024-03-08T12:56:12;4.57;;;3.10;;
14330;SDS011;7249;49.376;11.080;2024-03-08T12:58:40;4.50;;;3.55;;
14330;SDS011;7249;49.376;11.080;2024-03-08T13:01:07;4.88;;;3.45;;
14330;SDS011;7249;49.376;11.080;2024-03-08T13:03:33;6.32;;;3.90;;
14330;SDS011;7249;49.376;11.080;2024-03-08T13:06:01;4.65;;;2.95;;
14330;SDS011;7249;49.376;11.080;2024-03-08T13:08:36;6.45;;;2.95;;
14330;SDS011;7249;49.376;11.080;2024-03-08T13:11:04;4.57;;;3.28;;
14330;SDS011;7249;49.376;11.080;2024-03-08T13:13:30;4.43;;;3.58;;
14330;SDS011;7249;49.376;11.080;2024-03-08T13:15:56;5.75;;;3.35;;
14330;SDS011;7249;49.376;11.080;2024-03-08T13:18:22;6.35;;;3.75;;
14330;SDS011;7249;49.376;11.080;2024-03-08T13:20:48;4.22;;;3.50;;
14330;SDS011;7249;49.376;11.080;2024-03-08T13:23:17;5.15;;;3.50;;
14330;SDS011;7249;49.376;11.080;2024-03-08T13:25:43;4.05;;;2.85;;
14330;SDS011;7249;49.376;11.080;2024-03-08T13:28:09;4.68;;;3.20;;
14330;SDS011;7249;49.376;11.080;2024-03-08T13:30:36;6.65;;;3.47;;
14330;SDS011;7249;49.376;11.080;2024-03-08T13:33:01;5.25;;;3.25;;
14330;SDS011;7249;49.376;11.080;2024-03-08T13:35:29;5.63;;;3.38;;
14330;SDS011;7249;49.376;11.080;2024-03-08T13:37:59;6.07;;;3.08;;
14330;SDS011;7249;49.376;11.080;2024-03-08T13:40:28;4.28;;;3.38;;
14330;SDS011;7249;49.376;11.080;2024-03-08T13:42:53;6.25;;;3.95;;
14330;SDS011;7249;49.376;11.080;2024-03-08T13:45:19;4.60;;;3.38;;
14330;SDS011;7249;49.376;11.080;2024-03-08T13:47:53;7.50;;;3.88;;
14330;SDS011;7249;49.376;11.080;2024-03-08T13:50:19;5.13;;;3.58;;
14330;SDS011;7249;49.376;11.080;2024-03-08T13:52:49;7.63;;;4.07;;
14330;SDS011;7249;49.376;11.080;2024-03-08T13:55:19;5.13;;;3.53;;
14330;SDS011;7249;49.376;11.080;2024-03-08T13:57:45;5.00;;;3.30;;
14330;SDS011;7249;49.376;11.080;2024-03-08T14:00:12;4.97;;;3.20;;
14330;SDS011;7249;49.376;11.080;2024-03-08T14:02:38;5.78;;;3.38;;
14330;SDS011;7249;49.376;11.080;2024-03-08T14:05:06;4.35;;;3.13;;
14330;SDS011;7249;49.376;11.080;2024-03-08T14:07:34;6.45;;;3.53;;
14330;SDS011;7249;49.376;11.080;2024-03-08T14:10:00;5.63;;;3.28;;
14330;SDS011;7249;49.376;11.080;2024-03-08T14:12:25;4.88;;;3.58;;
14330;SDS011;7249;49.376;11.080;2024-03-08T14:14:52;4.20;;;2.95;;
14330;SDS011;7249;49.376;11.080;2024-03-08T14:17:18;5.30;;;3.20;;
14330;SDS011;7249;49.376;11.080;2024-03-08T14:19:43;4.95;;;3.65;;
14330;SDS011;7249;49.376;11.080;2024-03-08T14:22:09;5.32;;;3.60;;
14330;SDS011;7249;49.376;11.080;2024-03-08T14:24:39;5.25;;;3.95;;
14330;SDS011;7249;49.376;11.080;2024-03-08T14:27:07;6.03;;;3.63;;
14330;SDS011;7249;49.376;11.080;2024-03-08T14:29:35;5.88;;;3.60;;
14330;SDS011;7249;49.376;11.080;2024-03-08T14:32:01;6.32;;;3.55;;
14330;SDS011;7249;49.376;11.080;2024-03-08T14:34:28;5.60;;;3.63;;
14330;SDS011;7249;49.376;11.080;2024-03-08T14:36:58;6.63;;;4.28;;
14330;SDS011;7249;49.376;11.080;2024-03-08T14:39:25;5.65;;;3.65;;
14330;SDS011;7249;49.376;11.080;2024-03-08T14:41:54;5.70;;;3.92;;
14330;SDS011;7249;49.376;11.080;2024-03-08T14:44:21;6.18;;;3.85;;
14330;SDS011;7249;49.376;11.080;2024-03-08T14:46:51;5.53;;;3.53;;
14330;SDS011;7249;49.376;11.080;2024-03-08T14:49:23;5.47;;;3.90;;
14330;SDS011;7249;49.376;11.080;2024-03-08T14:51:51;5.55;;;3.70;;
14330;SDS011;7249;49.376;11.080;2024-03-08T14:54:17;5.75;;;3.22;;
14330;SDS011;7249;49.376;11.080;2024-03-08T14:56:47;4.82;;;3.40;;